Time;durP1;ratioP1;P1;durP2;ratioP2;P2;SDS_P1;SDS_P2;PMS_P1;PMS_P2;Temp;Humidity;BMP_temperature;BMP_pressure;BME280_temperature;BME280_humidity;BME280_pressure;Samples;Min_cycle;Max_cycle;Signal;HPM_P1;HPM_P2
2021/03/25 00:00:33;;;;;;;10.13;6.45;;;;;;;;;;4994487;28;20037;-81
2021/03/25 00:03:00;;;;;;;7.57;5.55;;;;;;;;;;4994663;28;20121;-81
2021/03/25 00:05:28;;;;;;;8.85;7.03;;;;;;;;;;4994688;28;20034;-83
2021/03/25 00:07:54;;;;;;;10.25;7.25;;;;;;;;;;4994635;28;20052;-81
2021/03/25 00:10:38;;;;;;;9.93;8.20;;;;;;;;;;4994587;28;20026;-83
2021/03/25 00:13:05;;;;;;;9.87;7.13;;;;;;;;;;4977142;28;20019;-81
2021/03/25 00:15:31;;;;;;;9.88;7.15;;;;;;;;;;4994560;28;20256;-84
2021/03/25 00:17:57;;;;;;;20.08;11.73;;;;;;;;;;4994418;28;20378;-83
2021/03/25 00:20:24;;;;;;;20.30;13.57;;;;;;;;;;4994379;28;20106;-81
2021/03/25 00:22:50;;;;;;;8.30;6.30;;;;;;;;;;4994295;28;20031;-79
2021/03/25 00:25:19;;;;;;;6.28;4.88;;;;;;;;;;4994291;28;20062;-81
2021/03/25 00:27:45;;;;;;;8.38;5.25;;;;;;;;;;4994510;28;20504;-80
2021/03/25 00:30:12;;;;;;;8.30;5.05;;;;;;;;;;4994056;28;20034;-79
2021/03/25 00:32:38;;;;;;;6.72;5.60;;;;;;;;;;4994197;28;20490;-81
2021/03/25 00:35:05;;;;;;;7.97;5.15;;;;;;;;;;4994296;28;20097;-83
2021/03/25 00:37:32;;;;;;;13.45;7.85;;;;;;;;;;4994103;28;20470;-80
2021/03/25 00:39:58;;;;;;;7.47;5.50;;;;;;;;;;4994138;28;20036;-84
2021/03/25 00:42:24;;;;;;;6.82;4.70;;;;;;;;;;4994208;28;20379;-82
2021/03/25 00:44:50;;;;;;;6.50;4.53;;;;;;;;;;4994085;28;20474;-79
2021/03/25 00:47:16;;;;;;;5.88;4.05;;;;;;;;;;4993765;28;20442;-80
2021/03/25 00:49:42;;;;;;;6.28;4.07;;;;;;;;;;4993954;28;20038;-82
2021/03/25 00:52:11;;;;;;;6.75;4.93;;;;;;;;;;4976443;28;20022;-79
2021/03/25 00:54:37;;;;;;;7.82;5.90;;;;;;;;;;4994012;28;20061;-82
2021/03/25 00:57:04;;;;;;;6.25;4.75;;;;;;;;;;4993828;28;20030;-86
2021/03/25 00:59:30;;;;;;;4.85;4.13;;;;;;;;;;4994031;28;20034;-81
2021/03/25 01:01:56;;;;;;;5.13;4.28;;;;;;;;;;4993976;28;20022;-79
2021/03/25 01:04:22;;;;;;;5.65;3.85;;;;;;;;;;4993805;28;20097;-82
2021/03/25 01:06:48;;;;;;;6.32;4.72;;;;;;;;;;4993810;28;20413;-78
2021/03/25 01:09:24;;;;;;;4.80;3.90;;;;;;;;;;4994043;28;20035;-82
2021/03/25 01:11:51;;;;;;;15.48;9.80;;;;;;;;;;4993973;28;20385;-82
2021/03/25 01:14:22;;;;;;;4.97;3.70;;;;;;;;;;4997817;28;20090;-84
2021/03/25 01:16:48;;;;;;;5.70;4.30;;;;;;;;;;4997962;28;20023;-81
2021/03/25 01:19:19;;;;;;;5.25;3.65;;;;;;;;;;4980211;28;20058;-80
2021/03/25 01:21:46;;;;;;;4.10;3.28;;;;;;;;;;4980260;28;20433;-82
2021/03/25 01:24:13;;;;;;;5.20;4.70;;;;;;;;;;4997529;28;20121;-81
2021/03/25 01:26:39;;;;;;;5.18;3.55;;;;;;;;;;4997555;28;20026;-83
2021/03/25 01:29:05;;;;;;;4.15;3.08;;;;;;;;;;4997560;28;20113;-80
2021/03/25 01:31:32;;;;;;;4.82;3.50;;;;;;;;;;4997515;28;20022;-80
2021/03/25 01:33:58;;;;;;;4.25;3.60;;;;;;;;;;4997450;28;20034;-81
2021/03/25 01:36:24;;;;;;;5.68;3.70;;;;;;;;;;4997547;28;20023;-82
2021/03/25 01:38:50;;;;;;;5.28;3.33;;;;;;;;;;4997427;28;20397;-82
2021/03/25 01:41:17;;;;;;;5.88;4.35;;;;;;;;;;4997309;28;20034;-80
2021/03/25 01:43:44;;;;;;;5.88;3.78;;;;;;;;;;4997201;28;20393;-78
2021/03/25 01:46:22;;;;;;;5.28;3.50;;;;;;;;;;4997319;28;20488;-81
2021/03/25 01:48:51;;;;;;;5.75;3.25;;;;;;;;;;4996905;28;20050;-80
2021/03/25 01:51:22;;;;;;;5.68;3.30;;;;;;;;;;4997225;28;20023;-77
2021/03/25 01:54:03;;;;;;;4.80;3.63;;;;;;;;;;4997023;28;20069;-83
2021/03/25 01:56:42;;;;;;;6.68;4.22;;;;;;;;;;4996777;28;20031;-81
2021/03/25 01:59:20;;;;;;;5.53;4.28;;;;;;;;;;4997014;28;20121;-79
2021/03/25 02:01:51;;;;;;;5.28;3.15;;;;;;;;;;4996952;28;20038;-81
2021/03/25 02:04:35;;;;;;;4.25;2.60;;;;;;;;;;4996911;28;20092;-81
2021/03/25 02:07:04;;;;;;;4.70;3.03;;;;;;;;;;4997028;28;20026;-83
2021/03/25 02:09:36;;;;;;;4.38;3.40;;;;;;;;;;4996805;28;20029;-81
2021/03/25 02:12:05;;;;;;;4.45;3.38;;;;;;;;;;4996755;28;20026;-83
2021/03/25 02:14:34;;;;;;;4.07;2.80;;;;;;;;;;4996815;28;20414;-83
2021/03/25 02:17:03;;;;;;;5.25;3.35;;;;;;;;;;4996814;28;20030;-80
2021/03/25 02:19:48;;;;;;;6.78;4.03;;;;;;;;;;4996596;28;20031;-78
2021/03/25 02:22:14;;;;;;;;;;;;;;;;;;4997037;28;20382;-81
2021/03/25 02:24:40;;;;;;;7.63;4.50;;;;;;;;;;4996219;28;19914;-80
2021/03/25 02:27:19;;;;;;;6.53;4.05;;;;;;;;;;4996524;28;20034;-83
2021/03/25 02:29:56;;;;;;;7.10;4.70;;;;;;;;;;4978921;28;20040;-82
2021/03/25 02:32:27;;;;;;;7.60;4.75;;;;;;;;;;4996342;28;20044;-80
2021/03/25 02:34:56;;;;;;;9.90;5.97;;;;;;;;;;4996343;28;20030;-80
2021/03/25 02:37:33;;;;;;;8.18;5.47;;;;;;;;;;4996276;28;20470;-78
2021/03/25 02:40:08;;;;;;;9.00;5.63;;;;;;;;;;4996280;28;20484;-80
2021/03/25 02:42:37;;;;;;;6.68;4.68;;;;;;;;;;4996355;28;20029;-83
2021/03/25 02:45:07;;;;;;;6.43;4.10;;;;;;;;;;4996030;28;20462;-78
2021/03/25 02:47:35;;;;;;;7.70;4.63;;;;;;;;;;4995871;28;20100;-82
2021/03/25 02:50:05;;;;;;;7.85;5.07;;;;;;;;;;4996199;28;20030;-83
2021/03/25 02:52:35;;;;;;;8.13;5.28;;;;;;;;;;4978601;28;20022;-80
2021/03/25 02:55:03;;;;;;;9.13;5.88;;;;;;;;;;4996088;28;20172;-83
2021/03/25 02:57:32;;;;;;;8.77;5.82;;;;;;;;;;4995805;28;20030;-81
2021/03/25 03:00:00;;;;;;;5.43;4.47;;;;;;;;;;4995844;28;20053;-83
2021/03/25 03:02:32;;;;;;;6.10;4.65;;;;;;;;;;4995932;28;20038;-79
2021/03/25 03:05:01;;;;;;;7.22;4.88;;;;;;;;;;4995778;28;20038;-78
2021/03/25 03:07:29;;;;;;;6.93;5.15;;;;;;;;;;4995644;28;20018;-80
2021/03/25 03:09:59;;;;;;;7.22;5.10;;;;;;;;;;4995930;28;20033;-81
2021/03/25 03:12:27;;;;;;;5.80;4.60;;;;;;;;;;4995661;28;20121;-81
2021/03/25 03:15:12;;;;;;;7.90;4.90;;;;;;;;;;4995752;28;20026;-78
2021/03/25 03:17:48;;;;;;;7.40;5.75;;;;;;;;;;4995707;28;20041;-81
2021/03/25 03:20:17;;;;;;;5.57;4.93;;;;;;;;;;4978008;28;20390;-82
2021/03/25 03:22:43;;;;;;;7.45;4.63;;;;;;;;;;4995500;28;20061;-81
2021/03/25 03:25:12;;;;;;;7.38;5.00;;;;;;;;;;4995364;28;20477;-80
2021/03/25 03:28:01;;;;;;;6.60;4.90;;;;;;;;;;4995404;28;20026;-79
2021/03/25 03:30:45;;;;;;;9.23;4.22;;;;;;;;;;4987777;28;20034;-82
2021/03/25 03:33:35;;;;;;;4.97;4.30;;;;;;;;;;4995315;28;20031;-81
2021/03/25 03:36:03;;;;;;;6.20;4.50;;;;;;;;;;4984766;28;20509;-79
2021/03/25 03:38:50;;;;;;;8.57;4.85;;;;;;;;;;4995153;28;20054;-81
2021/03/25 03:41:18;;;;;;;7.75;4.88;;;;;;;;;;4995017;28;20029;-82
2021/03/25 03:43:44;;;;;;;6.35;4.60;;;;;;;;;;4995108;28;20501;-80
2021/03/25 03:46:13;;;;;;;6.05;4.68;;;;;;;;;;4977577;28;20045;-78
2021/03/25 03:48:41;;;;;;;8.23;5.20;;;;;;;;;;4994834;28;20061;-81
2021/03/25 03:51:14;;;;;;;7.45;5.88;;;;;;;;;;4995100;28;20030;-78
2021/03/25 03:53:40;;;;;;;7.18;6.10;;;;;;;;;;4994723;28;20026;-80
2021/03/25 03:56:22;;;;;;;9.05;5.03;;;;;;;;;;4994787;28;20026;-79
2021/03/25 03:58:50;;;;;;;7.35;4.97;;;;;;;;;;4994814;28;20058;-78
2021/03/25 04:01:26;;;;;;;11.05;6.72;;;;;;;;;;4994408;28;20541;-80
2021/03/25 04:03:57;;;;;;;9.40;5.55;;;;;;;;;;4994619;28;20038;-79
2021/03/25 04:06:25;;;;;;;9.98;6.38;;;;;;;;;;4994627;28;20458;-79
2021/03/25 04:08:57;;;;;;;10.95;8.20;;;;;;;;;;4994887;28;20363;-80
2021/03/25 04:11:28;;;;;;;7.47;4.80;;;;;;;;;;4977182;28;20057;-78
2021/03/25 04:14:12;;;;;;;10.80;6.97;;;;;;;;;;4994485;28;20026;-82
2021/03/25 04:16:41;;;;;;;10.52;6.53;;;;;;;;;;4994517;28;20093;-81
2021/03/25 04:19:12;;;;;;;9.63;6.13;;;;;;;;;;4976952;28;20062;-80
2021/03/25 04:21:41;;;;;;;9.70;7.10;;;;;;;;;;4994362;28;20101;-78
2021/03/25 04:24:12;;;;;;;14.07;8.73;;;;;;;;;;4994405;28;20466;-80
2021/03/25 04:26:51;;;;;;;10.90;6.63;;;;;;;;;;4994433;28;20069;-82
2021/03/25 04:29:25;;;;;;;8.65;6.10;;;;;;;;;;4976864;28;20029;-78
2021/03/25 04:31:51;;;;;;;6.30;5.22;;;;;;;;;;4994298;28;20544;-78
2021/03/25 04:34:17;;;;;;;7.40;6.18;;;;;;;;;;4994212;28;20053;-82
2021/03/25 04:36:45;;;;;;;10.23;7.00;;;;;;;;;;4994049;28;20026;-79
2021/03/25 04:39:12;;;;;;;9.52;6.03;;;;;;;;;;4994170;28;20033;-82
2021/03/25 04:41:40;;;;;;;10.30;7.20;;;;;;;;;;4994078;28;20034;-79
2021/03/25 04:44:07;;;;;;;9.40;6.78;;;;;;;;;;4994094;28;20029;-78
2021/03/25 04:46:44;;;;;;;8.65;7.10;;;;;;;;;;4994073;28;20041;-80
2021/03/25 04:49:13;;;;;;;9.48;7.50;;;;;;;;;;4994060;28;20043;-80
2021/03/25 04:51:39;;;;;;;9.55;6.90;;;;;;;;;;4994156;28;20030;-82
2021/03/25 04:54:10;;;;;;;8.98;6.82;;;;;;;;;;4976469;28;20026;-79
2021/03/25 04:56:38;;;;;;;8.63;6.30;;;;;;;;;;4994050;28;20372;-81
2021/03/25 04:59:04;;;;;;;8.55;6.13;;;;;;;;;;4994035;28;20362;-79
2021/03/25 05:01:31;;;;;;;7.82;6.35;;;;;;;;;;4993693;28;20045;-78
2021/03/25 05:03:59;;;;;;;9.77;7.07;;;;;;;;;;4976387;28;20042;-82
2021/03/25 05:06:28;;;;;;;9.05;6.97;;;;;;;;;;4993818;28;20042;-81
2021/03/25 05:08:55;;;;;;;10.23;8.00;;;;;;;;;;4994006;28;20081;-78
2021/03/25 05:11:23;;;;;;;9.60;7.55;;;;;;;;;;4976162;28;20026;-82
2021/03/25 05:13:49;;;;;;;10.35;7.32;;;;;;;;;;4976358;28;20030;-80
2021/03/25 05:16:34;;;;;;;11.57;7.95;;;;;;;;;;4976294;28;20104;-82
2021/03/25 05:19:03;;;;;;;11.15;8.40;;;;;;;;;;4993805;28;20019;-83
2021/03/25 05:21:55;;;;;;;11.30;8.50;;;;;;;;;;4976209;28;20038;-79
2021/03/25 05:24:34;;;;;;;11.85;8.93;;;;;;;;;;4963773;28;20121;-78
2021/03/25 05:27:05;;;;;;;12.30;10.23;;;;;;;;;;4993683;28;20022;-82
2021/03/25 05:29:32;;;;;;;14.55;9.30;;;;;;;;;;4993585;28;20136;-82
2021/03/25 05:31:58;;;;;;;15.95;12.70;;;;;;;;;;4993649;28;20023;-79
2021/03/25 05:34:26;;;;;;;16.50;12.23;;;;;;;;;;4993607;28;20030;-84
2021/03/25 05:36:55;;;;;;;17.30;11.68;;;;;;;;;;4993732;28;20390;-84
2021/03/25 05:39:21;;;;;;;15.05;11.25;;;;;;;;;;4993605;28;20041;-81
2021/03/25 05:41:51;;;;;;;9.52;7.47;;;;;;;;;;4993625;28;20085;-83
2021/03/25 05:44:18;;;;;;;12.38;6.97;;;;;;;;;;4993438;28;20150;-85
2021/03/25 05:46:50;;;;;;;11.10;6.55;;;;;;;;;;4975931;28;20027;-81
2021/03/25 05:49:21;;;;;;;10.55;6.50;;;;;;;;;;4987750;28;20097;-81
2021/03/25 05:52:06;;;;;;;13.88;9.38;;;;;;;;;;4974075;28;20482;-83
2021/03/25 05:54:35;;;;;;;8.43;6.55;;;;;;;;;;4973890;28;20031;-82
2021/03/25 05:57:01;;;;;;;9.82;6.53;;;;;;;;;;4974043;28;20470;-81
2021/03/25 05:59:29;;;;;;;7.95;6.28;;;;;;;;;;4976340;28;20033;-84
2021/03/25 06:02:00;;;;;;;8.77;6.45;;;;;;;;;;4977594;28;20510;-82
2021/03/25 06:04:34;;;;;;;9.65;7.07;;;;;;;;;;4977358;28;20517;-82
2021/03/25 06:07:16;;;;;;;9.98;6.32;;;;;;;;;;4977516;28;20034;-83
2021/03/25 06:09:42;;;;;;;7.15;6.03;;;;;;;;;;4976302;28;20043;-79
2021/03/25 06:12:11;;;;;;;15.70;11.68;;;;;;;;;;5005058;28;20545;-80
2021/03/25 06:14:47;;;;;;;10.93;8.00;;;;;;;;;;4992425;28;20030;-80
2021/03/25 06:17:23;;;;;;;9.35;7.57;;;;;;;;;;4978893;28;20030;-82
2021/03/25 06:19:55;;;;;;;11.80;8.48;;;;;;;;;;4996785;28;20033;-82
2021/03/25 06:22:40;;;;;;;16.30;9.95;;;;;;;;;;4996626;28;20030;-82
2021/03/25 06:25:45;;;;;;;9.95;7.50;;;;;;;;;;4973910;28;20486;-81
2021/03/25 06:28:30;;;;;;;11.93;9.02;;;;;;;;;;4927706;29;20050;-80
2021/03/25 06:31:15;;;;;;;15.20;10.98;;;;;;;;;;4932788;29;20082;-80
2021/03/25 06:33:50;;;;;;;15.48;10.35;;;;;;;;;;4984575;28;20060;-81
2021/03/25 06:36:17;;;;;;;30.83;14.32;;;;;;;;;;5003775;28;20034;-82
2021/03/25 06:38:54;;;;;;;14.10;9.32;;;;;;;;;;4999747;28;20486;-82
2021/03/25 06:41:28;;;;;;;12.23;8.00;;;;;;;;;;4982148;28;20034;-84
2021/03/25 06:43:57;;;;;;;11.40;8.25;;;;;;;;;;4992349;28;20037;-80
2021/03/25 06:46:42;;;;;;;10.15;7.50;;;;;;;;;;4991425;28;20033;-84
2021/03/25 06:49:07;;;;;;;;;;;;;;;;;;4994292;28;20097;-84
2021/03/25 06:54:37;;;;;;;12.93;10.00;;;;;;;;;;4994496;28;20087;-83
2021/03/25 06:57:03;;;;;;;13.18;8.70;;;;;;;;;;4993582;28;20113;-84
2021/03/25 06:59:31;;;;;;;18.35;12.90;;;;;;;;;;4993632;28;20023;-85
2021/03/25 07:05:22;;;;;;;21.83;14.48;;;;;;;;;;4989922;28;20104;-81
2021/03/25 07:07:53;;;;;;;19.55;12.13;;;;;;;;;;4991748;28;20053;-85
2021/03/25 07:10:19;;;;;;;14.52;11.18;;;;;;;;;;4991312;28;20022;-82
2021/03/25 07:12:47;;;;;;;14.82;11.90;;;;;;;;;;4992623;28;20037;-86
2021/03/25 07:15:21;;;;;;;14.85;11.50;;;;;;;;;;4992514;28;20057;-82
2021/03/25 07:17:47;;;;;;;16.17;11.73;;;;;;;;;;4991767;28;20070;-84
2021/03/25 07:20:22;;;;;;;15.88;11.10;;;;;;;;;;4993249;28;20038;-85
2021/03/25 07:23:07;;;;;;;17.58;12.55;;;;;;;;;;4975098;28;20059;-82
2021/03/25 07:25:34;;;;;;;16.10;11.45;;;;;;;;;;4971912;28;20405;-80
2021/03/25 07:28:01;;;;;;;19.05;13.25;;;;;;;;;;4968675;28;20019;-80
2021/03/25 07:30:38;;;;;;;17.75;13.05;;;;;;;;;;4971717;28;20062;-82
2021/03/25 07:33:09;;;;;;;17.45;13.48;;;;;;;;;;4971782;28;20037;-81
2021/03/25 07:35:43;;;;;;;19.80;13.77;;;;;;;;;;4972459;28;20031;-86
2021/03/25 07:38:24;;;;;;;16.77;12.77;;;;;;;;;;4972866;28;20030;-82
2021/03/25 07:41:09;;;;;;;21.98;14.95;;;;;;;;;;4971895;28;20386;-82
2021/03/25 07:43:53;;;;;;;20.88;13.63;;;;;;;;;;4973521;28;20034;-84
2021/03/25 07:46:23;;;;;;;14.98;12.02;;;;;;;;;;4981127;28;20070;-84
2021/03/25 07:49:08;;;;;;;21.00;14.15;;;;;;;;;;4991186;28;20145;-82
2021/03/25 07:51:49;;;;;;;18.95;12.02;;;;;;;;;;4987243;28;20030;-83
2021/03/25 07:54:19;;;;;;;20.80;14.48;;;;;;;;;;4972658;28;20078;-82
2021/03/25 07:56:52;;;;;;;16.33;11.57;;;;;;;;;;4971785;28;20037;-81
2021/03/25 07:59:37;;;;;;;14.98;10.07;;;;;;;;;;4972800;28;20034;-81
2021/03/25 08:02:03;;;;;;;;;;;;;;;;;;4972462;28;20038;-82
2021/03/25 08:04:31;;;;;;;14.98;10.00;;;;;;;;;;4971750;28;20365;-81
2021/03/25 08:07:06;;;;;;;17.33;9.90;;;;;;;;;;4971775;28;20122;-80
2021/03/25 08:10:01;;;;;;;10.80;8.30;;;;;;;;;;4983340;28;20030;-81
2021/03/25 08:12:27;;;;;;;;;;;;;;;;;;4978699;28;20176;-81
2021/03/25 08:15:04;;;;;;;11.43;6.50;;;;;;;;;;4991271;28;20337;-84
2021/03/25 08:17:40;;;;;;;13.85;10.45;;;;;;;;;;4973981;28;20057;-86
2021/03/25 08:20:14;;;;;;;14.32;10.40;;;;;;;;;;4975582;28;20030;-85
2021/03/25 08:22:43;;;;;;;12.70;9.63;;;;;;;;;;4971080;28;20062;-80
2021/03/25 08:25:18;;;;;;;13.23;10.40;;;;;;;;;;4971968;28;20344;-86
2021/03/25 08:28:03;;;;;;;11.55;9.23;;;;;;;;;;4968475;28;20019;-82
2021/03/25 08:30:55;;;;;;;11.65;9.07;;;;;;;;;;4971102;28;20494;-79
2021/03/25 08:33:40;;;;;;;18.65;11.90;;;;;;;;;;4967912;28;20043;-81
2021/03/25 08:36:24;;;;;;;17.25;11.52;;;;;;;;;;4971413;28;20098;-81
2021/03/25 08:39:27;;;;;;;12.35;8.70;;;;;;;;;;4971172;28;20030;-82
2021/03/25 08:42:11;;;;;;;13.38;9.23;;;;;;;;;;4929683;28;20039;-80
2021/03/25 08:44:37;;;;;;;13.55;10.10;;;;;;;;;;4970661;28;20039;-80
2021/03/25 08:47:03;;;;;;;13.23;8.73;;;;;;;;;;4973324;28;20413;-78
2021/03/25 08:49:48;;;;;;;13.95;9.88;;;;;;;;;;4990781;28;20045;-82
2021/03/25 08:52:15;;;;;;;11.20;8.63;;;;;;;;;;4990583;28;20035;-83
2021/03/25 08:55:04;;;;;;;11.15;8.88;;;;;;;;;;4990924;28;20560;-79
2021/03/25 08:57:33;;;;;;;14.68;9.02;;;;;;;;;;4977777;28;20402;-82
2021/03/25 09:00:07;;;;;;;12.07;8.35;;;;;;;;;;4990528;28;20033;-81
2021/03/25 09:02:52;;;;;;;15.43;11.40;;;;;;;;;;4992218;28;20392;-81
2021/03/25 09:05:23;;;;;;;14.07;8.95;;;;;;;;;;4999955;28;20070;-81
2021/03/25 09:07:50;;;;;;;14.68;9.70;;;;;;;;;;4996425;28;20055;-80
2021/03/25 09:10:22;;;;;;;14.50;11.25;;;;;;;;;;5009750;28;20030;-81
2021/03/25 09:12:48;;;;;;;13.88;9.63;;;;;;;;;;5009823;28;20389;-77
2021/03/25 09:15:15;;;;;;;12.90;9.15;;;;;;;;;;5009917;28;20049;-83
2021/03/25 09:17:48;;;;;;;20.10;10.55;;;;;;;;;;4998064;28;20030;-79
2021/03/25 09:20:18;;;;;;;13.20;8.10;;;;;;;;;;4990265;28;20031;-83
2021/03/25 09:22:49;;;;;;;9.05;6.80;;;;;;;;;;4990175;28;20023;-82
2021/03/25 09:25:36;;;;;;;9.93;6.80;;;;;;;;;;4989615;28;20043;-81
2021/03/25 09:28:21;;;;;;;13.05;9.82;;;;;;;;;;4989948;28;20511;-81
2021/03/25 09:31:10;;;;;;;11.57;7.28;;;;;;;;;;4990158;28;20037;-82
2021/03/25 09:33:41;;;;;;;11.38;7.07;;;;;;;;;;4991757;28;20026;-87
2021/03/25 09:36:19;;;;;;;10.90;8.00;;;;;;;;;;4994224;28;20097;-81
2021/03/25 09:38:47;;;;;;;8.73;6.45;;;;;;;;;;4996536;28;20026;-79
2021/03/25 09:41:32;;;;;;;15.00;9.63;;;;;;;;;;5012719;28;20040;-79
2021/03/25 09:44:01;;;;;;;8.90;6.13;;;;;;;;;;5005872;28;20027;-79
2021/03/25 09:46:46;;;;;;;9.63;5.60;;;;;;;;;;4998384;28;20030;-80
2021/03/25 09:49:17;;;;;;;7.28;5.07;;;;;;;;;;5005371;28;20105;-80
2021/03/25 09:51:43;;;;;;;10.57;6.35;;;;;;;;;;5002657;28;20030;-79
2021/03/25 09:54:39;;;;;;;7.97;5.18;;;;;;;;;;4991710;28;20034;-79
2021/03/25 09:57:24;;;;;;;8.05;5.28;;;;;;;;;;4980202;28;20097;-79
2021/03/25 10:00:00;;;;;;;9.40;5.80;;;;;;;;;;4993455;28;20050;-82
2021/03/25 10:02:49;;;;;;;8.38;5.50;;;;;;;;;;4993325;28;20475;-78
2021/03/25 10:05:24;;;;;;;7.35;5.15;;;;;;;;;;4991025;28;20126;-80
2021/03/25 10:08:01;;;;;;;8.45;5.22;;;;;;;;;;4993233;28;20026;-81
2021/03/25 10:10:30;;;;;;;9.63;5.28;;;;;;;;;;4993318;28;20045;-79
2021/03/25 10:13:17;;;;;;;6.63;4.85;;;;;;;;;;4993380;28;20040;-78
2021/03/25 10:15:46;;;;;;;6.85;4.05;;;;;;;;;;4994601;28;20418;-79
2021/03/25 10:18:30;;;;;;;7.35;5.40;;;;;;;;;;4993292;28;20023;-81
2021/03/25 10:21:15;;;;;;;6.50;4.25;;;;;;;;;;4993321;28;20505;-81
2021/03/25 10:23:50;;;;;;;9.00;5.00;;;;;;;;;;4995014;28;20033;-91
2021/03/25 10:26:36;;;;;;;6.03;5.13;;;;;;;;;;5010710;28;20036;-79
2021/03/25 10:29:11;;;;;;;6.03;4.32;;;;;;;;;;5012782;28;20033;-83
2021/03/25 10:31:56;;;;;;;8.07;5.82;;;;;;;;;;4993764;28;20030;-85
2021/03/25 10:34:33;;;;;;;7.95;4.80;;;;;;;;;;4992962;28;20547;-83
2021/03/25 10:37:05;;;;;;;8.27;5.60;;;;;;;;;;4993091;28;20058;-83
2021/03/25 10:39:39;;;;;;;9.18;4.50;;;;;;;;;;4992580;28;20129;-82
2021/03/25 10:42:23;;;;;;;9.73;6.05;;;;;;;;;;4995095;28;20042;-84
2021/03/25 10:44:50;;;;;;;9.95;6.20;;;;;;;;;;5008569;28;20038;-83
2021/03/25 10:47:31;;;;;;;7.80;5.15;;;;;;;;;;5011594;28;20050;-84
2021/03/25 10:50:00;;;;;;;6.10;4.60;;;;;;;;;;5012548;28;20589;-84
2021/03/25 10:52:30;;;;;;;6.95;4.60;;;;;;;;;;4989468;28;20064;-82
2021/03/25 10:54:57;;;;;;;10.80;7.32;;;;;;;;;;5001660;28;20481;-85
2021/03/25 10:57:23;;;;;;;7.13;5.65;;;;;;;;;;5011825;28;20076;-80
2021/03/25 11:00:00;;;;;;;7.18;4.70;;;;;;;;;;4993352;28;20453;-81
2021/03/25 11:02:27;;;;;;;8.48;4.10;;;;;;;;;;4972592;28;20046;-82
2021/03/25 11:05:12;;;;;;;4.95;3.55;;;;;;;;;;4954936;28;20043;-81
2021/03/25 11:07:42;;;;;;;9.23;7.07;;;;;;;;;;4972349;28;20142;-83
2021/03/25 11:10:16;;;;;;;6.57;4.45;;;;;;;;;;4972250;28;20027;-83
2021/03/25 11:12:42;;;;;;;6.95;4.82;;;;;;;;;;4972629;28;20035;-85
2021/03/25 11:15:15;;;;;;;9.45;6.45;;;;;;;;;;4972354;28;20058;-80
2021/03/25 11:17:43;;;;;;;15.40;11.02;;;;;;;;;;4986365;28;20034;-84
2021/03/25 11:20:15;;;;;;;10.52;7.20;;;;;;;;;;4992750;28;20027;-85
2021/03/25 11:22:41;;;;;;;10.35;6.40;;;;;;;;;;4974534;28;20037;-82
2021/03/25 11:25:12;;;;;;;10.40;7.40;;;;;;;;;;5005953;28;20092;-83
2021/03/25 11:27:39;;;;;;;11.77;8.15;;;;;;;;;;4998459;28;20133;-83
2021/03/25 11:30:22;;;;;;;9.02;6.35;;;;;;;;;;4991103;28;20122;-79
2021/03/25 11:32:49;;;;;;;9.20;7.45;;;;;;;;;;4991268;28;20018;-80
2021/03/25 11:35:40;;;;;;;12.30;9.38;;;;;;;;;;4991481;28;20026;-81
2021/03/25 11:38:19;;;;;;;7.43;5.78;;;;;;;;;;4990635;28;20104;-80
2021/03/25 11:40:46;;;;;;;10.32;7.75;;;;;;;;;;4992468;28;20160;-84
2021/03/25 11:43:13;;;;;;;8.48;5.95;;;;;;;;;;5002732;28;20052;-82
2021/03/25 11:45:41;;;;;;;12.75;7.53;;;;;;;;;;5011680;28;20045;-88
2021/03/25 11:48:18;;;;;;;12.75;8.55;;;;;;;;;;5005383;28;20057;-88
2021/03/25 11:50:46;;;;;;;10.88;7.63;;;;;;;;;;4994135;28;20040;-86
2021/03/25 11:53:27;;;;;;;13.38;9.75;;;;;;;;;;5004492;28;20359;-81
2021/03/25 11:55:54;;;;;;;14.05;9.85;;;;;;;;;;5006298;28;20034;-84
2021/03/25 11:58:21;;;;;;;15.18;11.02;;;;;;;;;;5010460;28;20080;-79
2021/03/25 12:01:05;;;;;;;12.65;7.78;;;;;;;;;;4995051;28;20038;-83
2021/03/25 12:03:34;;;;;;;12.18;8.32;;;;;;;;;;4970546;28;20077;-83
2021/03/25 12:06:00;;;;;;;11.93;8.55;;;;;;;;;;4986135;28;20039;-81
2021/03/25 12:08:34;;;;;;;10.43;8.05;;;;;;;;;;4992240;28;20081;-80
2021/03/25 12:11:05;;;;;;;21.55;12.90;;;;;;;;;;4980362;28;20117;-80
2021/03/25 12:13:31;;;;;;;13.15;10.13;;;;;;;;;;4991249;28;20112;-82
2021/03/25 12:15:58;;;;;;;8.20;5.75;;;;;;;;;;4990947;28;20022;-77
2021/03/25 12:18:27;;;;;;;15.38;10.13;;;;;;;;;;4992945;28;20061;-81
2021/03/25 12:20:56;;;;;;;10.52;6.85;;;;;;;;;;4992923;28;20057;-84
2021/03/25 12:23:24;;;;;;;13.57;9.85;;;;;;;;;;4990302;28;20034;-80
2021/03/25 12:25:51;;;;;;;12.15;8.18;;;;;;;;;;5005958;28;20501;-80
2021/03/25 12:28:18;;;;;;;12.93;9.25;;;;;;;;;;5011132;28;20112;-78
2021/03/25 12:30:45;;;;;;;11.35;8.80;;;;;;;;;;4998137;28;20036;-80
2021/03/25 12:33:31;;;;;;;8.60;5.90;;;;;;;;;;4990653;28;20030;-80
2021/03/25 12:35:58;;;;;;;16.17;9.07;;;;;;;;;;4981128;28;20044;-80
2021/03/25 12:38:25;;;;;;;8.52;6.32;;;;;;;;;;4987098;28;20026;-80
2021/03/25 12:40:51;;;;;;;12.43;7.68;;;;;;;;;;4976247;28;20389;-84
2021/03/25 12:43:19;;;;;;;12.27;8.27;;;;;;;;;;4990203;28;20753;-83
2021/03/25 12:45:50;;;;;;;10.57;7.45;;;;;;;;;;4991458;28;20445;-85
2021/03/25 12:48:17;;;;;;;11.70;8.27;;;;;;;;;;4992234;28;20066;-84
2021/03/25 12:50:43;;;;;;;12.15;7.95;;;;;;;;;;4992906;28;20530;-78
2021/03/25 12:53:09;;;;;;;9.75;6.00;;;;;;;;;;4991426;28;20482;-83
2021/03/25 12:55:35;;;;;;;19.88;12.57;;;;;;;;;;4991965;28;20209;-80
2021/03/25 12:58:02;;;;;;;10.40;6.82;;;;;;;;;;4991030;28;20109;-80
2021/03/25 13:00:30;;;;;;;11.48;7.35;;;;;;;;;;4991107;28;20031;-80
2021/03/25 13:02:56;;;;;;;9.02;6.85;;;;;;;;;;4973437;28;20034;-77
2021/03/25 13:05:24;;;;;;;11.52;7.07;;;;;;;;;;4992173;28;20045;-79
2021/03/25 13:07:50;;;;;;;9.50;5.88;;;;;;;;;;4991567;28;20038;-78
2021/03/25 13:10:22;;;;;;;14.85;10.27;;;;;;;;;;4999318;28;20544;-84
2021/03/25 13:12:48;;;;;;;13.45;8.90;;;;;;;;;;4990738;28;20038;-82
2021/03/25 13:15:15;;;;;;;8.80;6.25;;;;;;;;;;4999824;28;20481;-80
2021/03/25 13:17:41;;;;;;;10.95;5.22;;;;;;;;;;4974615;28;20117;-81
2021/03/25 13:20:09;;;;;;;9.27;5.80;;;;;;;;;;4995715;28;20033;-77
2021/03/25 13:22:35;;;;;;;14.30;9.05;;;;;;;;;;4990862;28;20113;-84
2021/03/25 13:25:01;;;;;;;21.23;13.02;;;;;;;;;;4989204;28;20027;-82
2021/03/25 13:27:28;;;;;;;19.23;12.05;;;;;;;;;;4995327;28;20026;-83
2021/03/25 13:29:54;;;;;;;34.38;19.15;;;;;;;;;;4993818;28;20022;-82
2021/03/25 13:32:20;;;;;;;16.98;11.18;;;;;;;;;;4994771;28;20026;-80
2021/03/25 13:34:46;;;;;;;16.10;11.40;;;;;;;;;;4999880;28;20031;-84
2021/03/25 13:37:12;;;;;;;17.75;12.77;;;;;;;;;;5011850;28;20108;-81
2021/03/25 13:39:39;;;;;;;14.70;11.20;;;;;;;;;;5015177;28;20030;-83
2021/03/25 13:42:05;;;;;;;9.38;7.82;;;;;;;;;;5014680;28;20105;-81
2021/03/25 13:44:31;;;;;;;15.73;11.52;;;;;;;;;;5002124;28;20394;-84
2021/03/25 13:46:57;;;;;;;13.20;10.95;;;;;;;;;;4994821;28;20172;-81
2021/03/25 13:49:26;;;;;;;10.82;6.90;;;;;;;;;;5012560;28;20088;-82
2021/03/25 13:51:52;;;;;;;10.60;8.10;;;;;;;;;;4995207;28;20038;-81
2021/03/25 13:54:18;;;;;;;11.63;7.07;;;;;;;;;;4977957;28;20117;-78
2021/03/25 13:56:44;;;;;;;11.18;8.75;;;;;;;;;;4996168;28;20075;-84
2021/03/25 13:59:10;;;;;;;7.13;5.78;;;;;;;;;;4976556;28;20398;-80
2021/03/25 14:01:36;;;;;;;7.38;5.38;;;;;;;;;;4995136;28;20473;-82
2021/03/25 14:04:03;;;;;;;8.38;6.18;;;;;;;;;;4982387;28;20100;-81
2021/03/25 14:06:29;;;;;;;7.45;5.80;;;;;;;;;;4993788;28;20108;-78
2021/03/25 14:08:55;;;;;;;11.52;8.88;;;;;;;;;;4990526;28;20031;-78
2021/03/25 14:11:21;;;;;;;13.18;8.20;;;;;;;;;;4996870;28;20038;-80
2021/03/25 14:13:48;;;;;;;19.85;14.95;;;;;;;;;;4995849;28;20030;-82
2021/03/25 14:16:14;;;;;;;13.93;10.88;;;;;;;;;;4999003;28;20023;-85
2021/03/25 14:18:40;;;;;;;18.50;13.27;;;;;;;;;;4994257;28;20492;-78
2021/03/25 14:21:06;;;;;;;16.90;11.02;;;;;;;;;;4993805;28;20038;-79
2021/03/25 14:23:33;;;;;;;9.30;6.68;;;;;;;;;;5009164;28;20463;-77
2021/03/25 14:25:59;;;;;;;8.85;6.00;;;;;;;;;;5014732;28;20477;-80
2021/03/25 14:28:27;;;;;;;8.48;6.72;;;;;;;;;;5006361;28;20113;-78
2021/03/25 14:30:54;;;;;;;8.68;5.80;;;;;;;;;;4979067;28;20069;-78
2021/03/25 14:33:21;;;;;;;9.77;6.15;;;;;;;;;;4996339;28;20031;-80
2021/03/25 14:35:48;;;;;;;10.13;7.18;;;;;;;;;;4996406;28;20388;-77
2021/03/25 14:38:15;;;;;;;11.00;7.78;;;;;;;;;;4996538;28;20041;-73
2021/03/25 14:40:42;;;;;;;16.17;11.45;;;;;;;;;;4996338;28;20027;-78
2021/03/25 14:43:08;;;;;;;9.40;8.13;;;;;;;;;;4996120;28;20030;-79
2021/03/25 14:45:36;;;;;;;7.43;6.57;;;;;;;;;;4996144;28;20108;-79
2021/03/25 14:48:03;;;;;;;8.07;5.78;;;;;;;;;;4995997;28;20054;-82
2021/03/25 14:50:29;;;;;;;16.10;10.98;;;;;;;;;;4995968;28;20112;-80
2021/03/25 14:52:55;;;;;;;11.43;9.70;;;;;;;;;;4996107;28;20030;-80
2021/03/25 14:55:22;;;;;;;15.20;11.73;;;;;;;;;;4978553;28;20025;-80
2021/03/25 14:57:49;;;;;;;11.75;8.70;;;;;;;;;;4996028;28;20106;-82
2021/03/25 15:00:18;;;;;;;12.98;9.45;;;;;;;;;;4978464;28;20038;-80
2021/03/25 15:02:44;;;;;;;17.85;11.85;;;;;;;;;;4995888;28;20077;-81
2021/03/25 15:05:10;;;;;;;15.88;11.63;;;;;;;;;;4978413;28;20034;-83
2021/03/25 15:07:36;;;;;;;14.70;10.55;;;;;;;;;;4978412;28;20112;-82